sensor_id;sensor_type;location;lat;lon;timestamp;P1;durP1;ratioP1;P2;durP2;ratioP2
13566;SDS011;6855;48.112;11.298;2022-10-31T00:00:31;12.07;;;4.40;;
13566;SDS011;6855;48.112;11.298;2022-10-31T00:02:58;14.83;;;4.53;;
13566;SDS011;6855;48.112;11.298;2022-10-31T00:05:25;13.17;;;5.03;;
13566;SDS011;6855;48.112;11.298;2022-10-31T00:07:52;10.63;;;4.00;;
13566;SDS011;6855;48.112;11.298;2022-10-31T00:10:19;13.13;;;4.20;;
13566;SDS011;6855;48.112;11.298;2022-10-31T00:12:46;11.97;;;4.50;;
13566;SDS011;6855;48.112;11.298;2022-10-31T00:15:14;10.73;;;4.80;;
13566;SDS011;6855;48.112;11.298;2022-10-31T00:17:42;9.93;;;4.30;;
13566;SDS011;6855;48.112;11.298;2022-10-31T00:20:09;9.87;;;3.83;;
13566;SDS011;6855;48.112;11.298;2022-10-31T00:22:37;12.87;;;4.57;;
13566;SDS011;6855;48.112;11.298;2022-10-31T00:25:04;23.13;;;4.50;;
13566;SDS011;6855;48.112;11.298;2022-10-31T00:27:31;8.43;;;3.83;;
13566;SDS011;6855;48.112;11.298;2022-10-31T00:29:58;7.47;;;5.00;;
13566;SDS011;6855;48.112;11.298;2022-10-31T00:32:28;12.33;;;3.77;;
13566;SDS011;6855;48.112;11.298;2022-10-31T00:34:57;19.10;;;4.50;;
13566;SDS011;6855;48.112;11.298;2022-10-31T00:37:24;11.60;;;4.03;;
13566;SDS011;6855;48.112;11.298;2022-10-31T00:39:51;17.10;;;5.20;;
13566;SDS011;6855;48.112;11.298;2022-10-31T00:42:19;11.93;;;4.30;;
13566;SDS011;6855;48.112;11.298;2022-10-31T00:44:46;9.47;;;4.90;;
13566;SDS011;6855;48.112;11.298;2022-10-31T00:47:13;9.30;;;4.50;;
13566;SDS011;6855;48.112;11.298;2022-10-31T00:49:40;12.00;;;5.23;;
13566;SDS011;6855;48.112;11.298;2022-10-31T00:52:09;13.80;;;4.50;;
13566;SDS011;6855;48.112;11.298;2022-10-31T00:54:36;8.13;;;4.00;;
13566;SDS011;6855;48.112;11.298;2022-10-31T00:57:03;7.30;;;4.43;;
13566;SDS011;6855;48.112;11.298;2022-10-31T00:59:30;11.53;;;4.57;;
13566;SDS011;6855;48.112;11.298;2022-10-31T01:01:57;9.37;;;4.20;;
13566;SDS011;6855;48.112;11.298;2022-10-31T01:04:24;12.20;;;4.60;;
13566;SDS011;6855;48.112;11.298;2022-10-31T01:06:51;7.23;;;3.77;;
13566;SDS011;6855;48.112;11.298;2022-10-31T01:09:20;10.80;;;4.00;;
13566;SDS011;6855;48.112;11.298;2022-10-31T01:11:47;12.53;;;4.40;;
13566;SDS011;6855;48.112;11.298;2022-10-31T01:14:14;12.83;;;4.33;;
13566;SDS011;6855;48.112;11.298;2022-10-31T01:16:41;9.67;;;4.53;;
13566;SDS011;6855;48.112;11.298;2022-10-31T01:19:09;13.60;;;4.27;;
13566;SDS011;6855;48.112;11.298;2022-10-31T01:21:36;10.27;;;4.70;;
13566;SDS011;6855;48.112;11.298;2022-10-31T01:24:03;7.90;;;4.30;;
13566;SDS011;6855;48.112;11.298;2022-10-31T01:26:32;17.47;;;4.77;;
13566;SDS011;6855;48.112;11.298;2022-10-31T01:29:00;11.90;;;4.67;;
13566;SDS011;6855;48.112;11.298;2022-10-31T01:31:28;9.53;;;4.37;;
13566;SDS011;6855;48.112;11.298;2022-10-31T01:33:56;10.60;;;4.37;;
13566;SDS011;6855;48.112;11.298;2022-10-31T01:36:24;14.13;;;5.00;;
13566;SDS011;6855;48.112;11.298;2022-10-31T01:38:52;9.03;;;4.90;;
13566;SDS011;6855;48.112;11.298;2022-10-31T01:41:20;12.60;;;5.97;;
13566;SDS011;6855;48.112;11.298;2022-10-31T01:43:50;13.40;;;4.80;;
13566;SDS011;6855;48.112;11.298;2022-10-31T01:46:19;13.30;;;4.40;;
13566;SDS011;6855;48.112;11.298;2022-10-31T01:48:47;11.50;;;4.60;;
13566;SDS011;6855;48.112;11.298;2022-10-31T01:51:15;16.43;;;5.27;;
13566;SDS011;6855;48.112;11.298;2022-10-31T01:53:44;16.93;;;4.97;;
13566;SDS011;6855;48.112;11.298;2022-10-31T01:56:12;8.07;;;3.80;;
13566;SDS011;6855;48.112;11.298;2022-10-31T01:58:40;11.50;;;4.23;;
13566;SDS011;6855;48.112;11.298;2022-10-31T02:01:08;10.20;;;3.77;;
13566;SDS011;6855;48.112;11.298;2022-10-31T02:03:36;12.30;;;4.27;;
13566;SDS011;6855;48.112;11.298;2022-10-31T02:06:03;28.23;;;5.40;;
13566;SDS011;6855;48.112;11.298;2022-10-31T02:08:32;9.90;;;5.00;;
13566;SDS011;6855;48.112;11.298;2022-10-31T02:11:00;7.50;;;4.27;;
13566;SDS011;6855;48.112;11.298;2022-10-31T02:13:28;10.43;;;4.07;;
13566;SDS011;6855;48.112;11.298;2022-10-31T02:15:56;11.60;;;4.37;;
13566;SDS011;6855;48.112;11.298;2022-10-31T02:18:26;11.63;;;5.20;;
13566;SDS011;6855;48.112;11.298;2022-10-31T02:20:58;10.40;;;4.50;;
13566;SDS011;6855;48.112;11.298;2022-10-31T02:31:58;13.53;;;4.30;;
13566;SDS011;6855;48.112;11.298;2022-10-31T02:34:28;12.70;;;4.20;;
13566;SDS011;6855;48.112;11.298;2022-10-31T02:36:59;9.97;;;4.70;;
13566;SDS011;6855;48.112;11.298;2022-10-31T02:39:28;12.53;;;4.30;;
13566;SDS011;6855;48.112;11.298;2022-10-31T02:42:01;11.03;;;4.33;;
13566;SDS011;6855;48.112;11.298;2022-10-31T02:44:33;8.27;;;4.40;;
13566;SDS011;6855;48.112;11.298;2022-10-31T02:47:05;10.47;;;4.20;;
13566;SDS011;6855;48.112;11.298;2022-10-31T02:49:33;10.70;;;4.70;;
13566;SDS011;6855;48.112;11.298;2022-10-31T02:52:02;8.90;;;4.23;;
13566;SDS011;6855;48.112;11.298;2022-10-31T02:54:39;6.83;;;3.20;;
13566;SDS011;6855;48.112;11.298;2022-10-31T02:57:06;6.33;;;4.50;;
13566;SDS011;6855;48.112;11.298;2022-10-31T02:59:34;13.83;;;5.43;;
13566;SDS011;6855;48.112;11.298;2022-10-31T03:02:16;11.73;;;4.93;;
13566;SDS011;6855;48.112;11.298;2022-10-31T03:05:07;9.00;;;4.20;;
13566;SDS011;6855;48.112;11.298;2022-10-31T03:07:39;10.37;;;4.20;;
13566;SDS011;6855;48.112;11.298;2022-10-31T03:10:11;10.93;;;4.37;;
13566;SDS011;6855;48.112;11.298;2022-10-31T03:12:42;15.90;;;4.00;;
13566;SDS011;6855;48.112;11.298;2022-10-31T03:15:13;18.43;;;4.70;;
13566;SDS011;6855;48.112;11.298;2022-10-31T03:17:45;12.30;;;5.00;;
13566;SDS011;6855;48.112;11.298;2022-10-31T03:20:14;10.93;;;3.80;;
13566;SDS011;6855;48.112;11.298;2022-10-31T03:22:42;16.63;;;4.87;;
13566;SDS011;6855;48.112;11.298;2022-10-31T03:25:09;10.40;;;4.57;;
13566;SDS011;6855;48.112;11.298;2022-10-31T03:27:38;14.77;;;3.90;;
13566;SDS011;6855;48.112;11.298;2022-10-31T03:30:08;10.13;;;5.37;;
13566;SDS011;6855;48.112;11.298;2022-10-31T03:32:36;15.90;;;4.90;;
13566;SDS011;6855;48.112;11.298;2022-10-31T03:35:07;10.43;;;4.07;;
13566;SDS011;6855;48.112;11.298;2022-10-31T03:37:35;9.77;;;4.77;;
13566;SDS011;6855;48.112;11.298;2022-10-31T03:40:03;7.83;;;4.00;;
13566;SDS011;6855;48.112;11.298;2022-10-31T03:42:32;7.07;;;3.53;;
13566;SDS011;6855;48.112;11.298;2022-10-31T03:45:01;12.77;;;4.17;;
13566;SDS011;6855;48.112;11.298;2022-10-31T03:47:30;10.93;;;4.00;;
13566;SDS011;6855;48.112;11.298;2022-10-31T03:49:58;11.37;;;3.60;;
13566;SDS011;6855;48.112;11.298;2022-10-31T03:52:27;6.93;;;3.63;;
13566;SDS011;6855;48.112;11.298;2022-10-31T03:54:56;11.40;;;4.77;;
13566;SDS011;6855;48.112;11.298;2022-10-31T03:57:24;8.90;;;4.10;;
13566;SDS011;6855;48.112;11.298;2022-10-31T03:59:55;10.17;;;3.47;;
13566;SDS011;6855;48.112;11.298;2022-10-31T04:02:25;7.43;;;4.03;;
13566;SDS011;6855;48.112;11.298;2022-10-31T04:04:55;10.20;;;4.90;;
13566;SDS011;6855;48.112;11.298;2022-10-31T04:07:23;10.67;;;4.70;;
13566;SDS011;6855;48.112;11.298;2022-10-31T04:09:53;12.60;;;3.77;;
13566;SDS011;6855;48.112;11.298;2022-10-31T04:12:21;7.37;;;3.80;;
13566;SDS011;6855;48.112;11.298;2022-10-31T04:14:49;9.90;;;4.27;;
13566;SDS011;6855;48.112;11.298;2022-10-31T04:17:17;12.90;;;4.13;;
13566;SDS011;6855;48.112;11.298;2022-10-31T04:19:48;9.70;;;4.73;;
13566;SDS011;6855;48.112;11.298;2022-10-31T04:22:15;9.53;;;4.00;;
13566;SDS011;6855;48.112;11.298;2022-10-31T04:24:43;7.43;;;3.93;;
13566;SDS011;6855;48.112;11.298;2022-10-31T04:27:11;10.93;;;4.70;;
13566;SDS011;6855;48.112;11.298;2022-10-31T04:29:38;7.37;;;5.43;;
13566;SDS011;6855;48.112;11.298;2022-10-31T04:32:05;8.67;;;3.70;;
13566;SDS011;6855;48.112;11.298;2022-10-31T04:34:33;10.03;;;3.83;;
13566;SDS011;6855;48.112;11.298;2022-10-31T04:37:00;13.80;;;3.90;;
13566;SDS011;6855;48.112;11.298;2022-10-31T04:39:27;6.50;;;3.67;;
13566;SDS011;6855;48.112;11.298;2022-10-31T04:41:54;9.70;;;3.83;;
13566;SDS011;6855;48.112;11.298;2022-10-31T04:44:23;12.57;;;4.70;;
13566;SDS011;6855;48.112;11.298;2022-10-31T04:46:50;9.53;;;3.80;;
13566;SDS011;6855;48.112;11.298;2022-10-31T04:49:24;10.57;;;4.10;;
13566;SDS011;6855;48.112;11.298;2022-10-31T04:51:51;8.60;;;4.33;;
13566;SDS011;6855;48.112;11.298;2022-10-31T04:54:18;20.47;;;5.13;;
13566;SDS011;6855;48.112;11.298;2022-10-31T04:56:45;18.83;;;4.60;;
13566;SDS011;6855;48.112;11.298;2022-10-31T04:59:12;17.03;;;5.57;;
13566;SDS011;6855;48.112;11.298;2022-10-31T05:01:41;14.57;;;4.90;;
13566;SDS011;6855;48.112;11.298;2022-10-31T05:04:08;11.57;;;5.13;;
13566;SDS011;6855;48.112;11.298;2022-10-31T05:06:35;15.10;;;5.60;;
13566;SDS011;6855;48.112;11.298;2022-10-31T05:09:02;14.40;;;5.73;;
13566;SDS011;6855;48.112;11.298;2022-10-31T05:11:30;15.40;;;5.60;;
13566;SDS011;6855;48.112;11.298;2022-10-31T05:13:57;12.70;;;5.53;;
13566;SDS011;6855;48.112;11.298;2022-10-31T05:16:24;12.70;;;5.87;;
13566;SDS011;6855;48.112;11.298;2022-10-31T05:18:52;9.83;;;4.87;;
13566;SDS011;6855;48.112;11.298;2022-10-31T05:21:20;14.80;;;6.10;;
13566;SDS011;6855;48.112;11.298;2022-10-31T05:23:47;17.87;;;5.50;;
13566;SDS011;6855;48.112;11.298;2022-10-31T05:26:14;12.40;;;5.20;;
13566;SDS011;6855;48.112;11.298;2022-10-31T05:28:41;15.40;;;4.90;;
13566;SDS011;6855;48.112;11.298;2022-10-31T05:31:08;17.33;;;5.00;;
13566;SDS011;6855;48.112;11.298;2022-10-31T05:33:35;11.47;;;4.80;;
13566;SDS011;6855;48.112;11.298;2022-10-31T05:36:04;15.03;;;4.57;;
13566;SDS011;6855;48.112;11.298;2022-10-31T05:38:31;11.80;;;4.90;;
13566;SDS011;6855;48.112;11.298;2022-10-31T05:40:59;12.10;;;5.00;;
13566;SDS011;6855;48.112;11.298;2022-10-31T05:43:26;11.87;;;5.03;;
13566;SDS011;6855;48.112;11.298;2022-10-31T05:45:53;9.13;;;5.03;;
13566;SDS011;6855;48.112;11.298;2022-10-31T05:48:21;10.17;;;4.37;;
13566;SDS011;6855;48.112;11.298;2022-10-31T05:50:48;7.97;;;4.10;;
13566;SDS011;6855;48.112;11.298;2022-10-31T05:53:17;8.50;;;4.13;;
13566;SDS011;6855;48.112;11.298;2022-10-31T05:55:44;14.37;;;5.10;;
13566;SDS011;6855;48.112;11.298;2022-10-31T05:58:11;8.30;;;4.03;;
13566;SDS011;6855;48.112;11.298;2022-10-31T06:00:38;7.50;;;4.13;;
13566;SDS011;6855;48.112;11.298;2022-10-31T06:03:06;7.73;;;3.63;;
13566;SDS011;6855;48.112;11.298;2022-10-31T06:05:34;7.87;;;3.60;;
13566;SDS011;6855;48.112;11.298;2022-10-31T06:08:01;12.13;;;4.10;;
13566;SDS011;6855;48.112;11.298;2022-10-31T06:10:29;7.77;;;3.50;;
13566;SDS011;6855;48.112;11.298;2022-10-31T06:12:57;8.57;;;3.60;;
13566;SDS011;6855;48.112;11.298;2022-10-31T06:15:24;6.40;;;3.10;;
13566;SDS011;6855;48.112;11.298;2022-10-31T06:17:58;12.93;;;3.80;;
13566;SDS011;6855;48.112;11.298;2022-10-31T06:20:25;7.70;;;3.50;;
13566;SDS011;6855;48.112;11.298;2022-10-31T06:22:52;7.87;;;3.50;;
13566;SDS011;6855;48.112;11.298;2022-10-31T06:25:19;8.07;;;3.63;;
13566;SDS011;6855;48.112;11.298;2022-10-31T06:27:48;4.37;;;2.70;;
13566;SDS011;6855;48.112;11.298;2022-10-31T06:30:15;7.87;;;3.73;;
13566;SDS011;6855;48.112;11.298;2022-10-31T06:32:42;15.33;;;3.67;;
13566;SDS011;6855;48.112;11.298;2022-10-31T06:35:09;5.67;;;4.00;;
13566;SDS011;6855;48.112;11.298;2022-10-31T06:37:37;5.50;;;3.40;;
13566;SDS011;6855;48.112;11.298;2022-10-31T06:40:04;5.00;;;2.90;;
13566;SDS011;6855;48.112;11.298;2022-10-31T06:42:32;6.13;;;3.27;;
13566;SDS011;6855;48.112;11.298;2022-10-31T06:45:00;11.37;;;4.13;;
13566;SDS011;6855;48.112;11.298;2022-10-31T06:47:27;11.97;;;3.90;;
13566;SDS011;6855;48.112;11.298;2022-10-31T06:49:54;7.30;;;3.90;;
13566;SDS011;6855;48.112;11.298;2022-10-31T06:52:22;14.03;;;3.93;;
13566;SDS011;6855;48.112;11.298;2022-10-31T06:54:49;6.23;;;3.40;;
13566;SDS011;6855;48.112;11.298;2022-10-31T06:57:16;9.30;;;3.90;;
13566;SDS011;6855;48.112;11.298;2022-10-31T06:59:43;7.67;;;3.37;;
13566;SDS011;6855;48.112;11.298;2022-10-31T07:02:12;7.10;;;3.40;;
13566;SDS011;6855;48.112;11.298;2022-10-31T07:04:39;6.93;;;3.50;;
13566;SDS011;6855;48.112;11.298;2022-10-31T07:07:06;6.93;;;3.37;;
13566;SDS011;6855;48.112;11.298;2022-10-31T07:09:33;9.30;;;3.23;;
13566;SDS011;6855;48.112;11.298;2022-10-31T07:12:00;15.33;;;3.90;;
13566;SDS011;6855;48.112;11.298;2022-10-31T07:14:28;9.93;;;3.77;;
13566;SDS011;6855;48.112;11.298;2022-10-31T07:16:55;9.77;;;3.77;;
13566;SDS011;6855;48.112;11.298;2022-10-31T07:19:23;12.83;;;4.70;;
13566;SDS011;6855;48.112;11.298;2022-10-31T07:21:50;11.30;;;4.53;;
13566;SDS011;6855;48.112;11.298;2022-10-31T07:24:18;11.27;;;4.13;;
13566;SDS011;6855;48.112;11.298;2022-10-31T07:26:45;6.10;;;3.80;;
13566;SDS011;6855;48.112;11.298;2022-10-31T07:29:12;9.37;;;4.80;;
13566;SDS011;6855;48.112;11.298;2022-10-31T07:31:39;10.37;;;4.73;;
13566;SDS011;6855;48.112;11.298;2022-10-31T07:34:07;7.97;;;4.90;;
13566;SDS011;6855;48.112;11.298;2022-10-31T07:36:35;7.60;;;3.70;;
13566;SDS011;6855;48.112;11.298;2022-10-31T07:39:02;9.17;;;3.90;;
13566;SDS011;6855;48.112;11.298;2022-10-31T07:41:29;8.13;;;3.43;;
13566;SDS011;6855;48.112;11.298;2022-10-31T07:43:57;8.90;;;3.40;;
13566;SDS011;6855;48.112;11.298;2022-10-31T07:46:24;10.77;;;3.03;;
13566;SDS011;6855;48.112;11.298;2022-10-31T07:48:51;8.30;;;3.30;;
13566;SDS011;6855;48.112;11.298;2022-10-31T07:51:18;6.73;;;3.17;;
13566;SDS011;6855;48.112;11.298;2022-10-31T07:53:47;9.87;;;3.43;;
13566;SDS011;6855;48.112;11.298;2022-10-31T07:56:14;8.63;;;3.10;;
13566;SDS011;6855;48.112;11.298;2022-10-31T07:58:41;7.53;;;3.37;;
13566;SDS011;6855;48.112;11.298;2022-10-31T08:01:08;8.73;;;3.33;;
13566;SDS011;6855;48.112;11.298;2022-10-31T08:03:35;11.93;;;4.80;;
13566;SDS011;6855;48.112;11.298;2022-10-31T08:06:02;8.93;;;3.37;;
13566;SDS011;6855;48.112;11.298;2022-10-31T08:08:29;6.30;;;3.43;;
13566;SDS011;6855;48.112;11.298;2022-10-31T08:10:58;5.73;;;2.80;;
13566;SDS011;6855;48.112;11.298;2022-10-31T08:13:27;12.00;;;3.80;;
13566;SDS011;6855;48.112;11.298;2022-10-31T08:16:01;6.67;;;2.77;;
13566;SDS011;6855;48.112;11.298;2022-10-31T08:18:29;7.80;;;3.60;;
13566;SDS011;6855;48.112;11.298;2022-10-31T08:20:56;6.27;;;3.30;;
13566;SDS011;6855;48.112;11.298;2022-10-31T08:23:24;6.93;;;3.37;;
13566;SDS011;6855;48.112;11.298;2022-10-31T08:25:51;6.23;;;3.33;;
13566;SDS011;6855;48.112;11.298;2022-10-31T08:28:20;6.03;;;3.17;;
13566;SDS011;6855;48.112;11.298;2022-10-31T08:30:47;17.20;;;4.90;;
13566;SDS011;6855;48.112;11.298;2022-10-31T08:33:15;14.20;;;5.13;;
13566;SDS011;6855;48.112;11.298;2022-10-31T08:35:43;11.60;;;4.73;;
13566;SDS011;6855;48.112;11.298;2022-10-31T08:38:10;6.73;;;4.43;;
13566;SDS011;6855;48.112;11.298;2022-10-31T08:40:38;7.10;;;4.27;;
13566;SDS011;6855;48.112;11.298;2022-10-31T08:43:06;13.30;;;4.60;;
13566;SDS011;6855;48.112;11.298;2022-10-31T08:45:34;9.97;;;4.37;;
13566;SDS011;6855;48.112;11.298;2022-10-31T08:48:03;8.70;;;4.20;;
13566;SDS011;6855;48.112;11.298;2022-10-31T08:50:30;14.43;;;4.57;;
13566;SDS011;6855;48.112;11.298;2022-10-31T08:53:01;6.70;;;4.50;;
13566;SDS011;6855;48.112;11.298;2022-10-31T08:55:28;13.43;;;5.33;;
13566;SDS011;6855;48.112;11.298;2022-10-31T08:57:56;11.50;;;5.00;;
13566;SDS011;6855;48.112;11.298;2022-10-31T09:00:23;9.63;;;6.00;;
13566;SDS011;6855;48.112;11.298;2022-10-31T09:02:55;10.87;;;5.97;;
13566;SDS011;6855;48.112;11.298;2022-10-31T09:05:23;13.20;;;5.83;;
13566;SDS011;6855;48.112;11.298;2022-10-31T09:07:50;12.13;;;6.70;;
13566;SDS011;6855;48.112;11.298;2022-10-31T09:10:17;14.23;;;6.50;;
13566;SDS011;6855;48.112;11.298;2022-10-31T09:12:45;13.77;;;5.80;;
13566;SDS011;6855;48.112;11.298;2022-10-31T09:15:12;12.30;;;5.60;;
13566;SDS011;6855;48.112;11.298;2022-10-31T09:17:39;9.57;;;5.03;;
13566;SDS011;6855;48.112;11.298;2022-10-31T09:20:08;12.37;;;5.57;;
13566;SDS011;6855;48.112;11.298;2022-10-31T09:22:36;13.73;;;5.40;;
13566;SDS011;6855;48.112;11.298;2022-10-31T09:25:04;13.80;;;5.47;;
13566;SDS011;6855;48.112;11.298;2022-10-31T09:27:31;11.17;;;4.90;;
13566;SDS011;6855;48.112;11.298;2022-10-31T09:29:58;15.87;;;5.77;;
13566;SDS011;6855;48.112;11.298;2022-10-31T09:32:25;9.93;;;5.20;;
13566;SDS011;6855;48.112;11.298;2022-10-31T09:34:52;9.90;;;4.87;;
13566;SDS011;6855;48.112;11.298;2022-10-31T09:37:21;12.70;;;4.80;;
13566;SDS011;6855;48.112;11.298;2022-10-31T09:39:48;10.00;;;4.70;;
13566;SDS011;6855;48.112;11.298;2022-10-31T09:42:22;14.67;;;4.57;;
13566;SDS011;6855;48.112;11.298;2022-10-31T09:44:53;20.00;;;4.37;;
13566;SDS011;6855;48.112;11.298;2022-10-31T09:47:26;11.80;;;4.10;;
13566;SDS011;6855;48.112;11.298;2022-10-31T09:50:06;9.70;;;4.40;;
13566;SDS011;6855;48.112;11.298;2022-10-31T09:52:38;11.27;;;3.87;;
13566;SDS011;6855;48.112;11.298;2022-10-31T09:55:08;7.70;;;3.50;;
13566;SDS011;6855;48.112;11.298;2022-10-31T09:57:40;9.60;;;3.10;;
13566;SDS011;6855;48.112;11.298;2022-10-31T10:00:10;6.20;;;3.20;;
13566;SDS011;6855;48.112;11.298;2022-10-31T10:02:42;6.23;;;3.37;;
13566;SDS011;6855;48.112;11.298;2022-10-31T10:05:12;11.47;;;3.90;;
13566;SDS011;6855;48.112;11.298;2022-10-31T10:07:44;7.80;;;3.67;;
13566;SDS011;6855;48.112;11.298;2022-10-31T10:10:15;7.50;;;3.60;;
13566;SDS011;6855;48.112;11.298;2022-10-31T10:12:48;6.70;;;2.90;;
13566;SDS011;6855;48.112;11.298;2022-10-31T10:15:23;10.97;;;3.37;;
13566;SDS011;6855;48.112;11.298;2022-10-31T10:17:56;7.20;;;3.40;;
13566;SDS011;6855;48.112;11.298;2022-10-31T10:20:29;10.17;;;3.50;;
13566;SDS011;6855;48.112;11.298;2022-10-31T10:23:05;11.23;;;3.80;;
13566;SDS011;6855;48.112;11.298;2022-10-31T10:25:37;8.90;;;3.87;;
13566;SDS011;6855;48.112;11.298;2022-10-31T10:28:08;14.13;;;3.73;;
13566;SDS011;6855;48.112;11.298;2022-10-31T10:30:38;13.10;;;3.60;;
13566;SDS011;6855;48.112;11.298;2022-10-31T10:33:09;7.30;;;3.60;;
13566;SDS011;6855;48.112;11.298;2022-10-31T10:35:39;11.23;;;2.70;;
13566;SDS011;6855;48.112;11.298;2022-10-31T10:38:11;9.20;;;2.93;;
13566;SDS011;6855;48.112;11.298;2022-10-31T10:40:40;11.00;;;3.23;;
13566;SDS011;6855;48.112;11.298;2022-10-31T10:43:14;7.87;;;3.17;;
13566;SDS011;6855;48.112;11.298;2022-10-31T10:45:48;10.67;;;2.97;;
13566;SDS011;6855;48.112;11.298;2022-10-31T10:48:37;14.67;;;3.70;;
13566;SDS011;6855;48.112;11.298;2022-10-31T10:51:06;7.03;;;2.93;;
13566;SDS011;6855;48.112;11.298;2022-10-31T10:53:39;9.40;;;3.70;;
13566;SDS011;6855;48.112;11.298;2022-10-31T10:56:27;15.90;;;3.33;;
13566;SDS011;6855;48.112;11.298;2022-10-31T10:58:57;7.77;;;2.60;;
13566;SDS011;6855;48.112;11.298;2022-10-31T11:01:24;7.27;;;2.33;;
13566;SDS011;6855;48.112;11.298;2022-10-31T11:03:52;12.87;;;2.90;;
13566;SDS011;6855;48.112;11.298;2022-10-31T11:06:19;11.10;;;2.43;;
13566;SDS011;6855;48.112;11.298;2022-10-31T11:08:52;10.47;;;3.20;;
13566;SDS011;6855;48.112;11.298;2022-10-31T11:11:23;6.97;;;2.50;;
13566;SDS011;6855;48.112;11.298;2022-10-31T11:13:52;4.57;;;2.17;;
13566;SDS011;6855;48.112;11.298;2022-10-31T11:16:27;8.30;;;2.43;;
13566;SDS011;6855;48.112;11.298;2022-10-31T11:18:54;17.53;;;2.50;;
13566;SDS011;6855;48.112;11.298;2022-10-31T11:21:32;5.90;;;2.80;;
13566;SDS011;6855;48.112;11.298;2022-10-31T11:24:08;8.07;;;2.87;;
13566;SDS011;6855;48.112;11.298;2022-10-31T11:26:40;7.83;;;3.20;;
13566;SDS011;6855;48.112;11.298;2022-10-31T11:29:11;10.47;;;3.43;;
13566;SDS011;6855;48.112;11.298;2022-10-31T11:31:39;10.27;;;2.70;;
13566;SDS011;6855;48.112;11.298;2022-10-31T11:34:12;7.80;;;2.80;;
13566;SDS011;6855;48.112;11.298;2022-10-31T11:36:42;4.00;;;2.50;;
13566;SDS011;6855;48.112;11.298;2022-10-31T11:39:15;10.77;;;3.00;;
13566;SDS011;6855;48.112;11.298;2022-10-31T11:41:44;14.67;;;3.50;;
13566;SDS011;6855;48.112;11.298;2022-10-31T11:44:12;9.00;;;2.87;;
13566;SDS011;6855;48.112;11.298;2022-10-31T11:46:41;11.03;;;3.20;;
13566;SDS011;6855;48.112;11.298;2022-10-31T11:49:11;15.07;;;3.20;;
13566;SDS011;6855;48.112;11.298;2022-10-31T11:51:41;9.67;;;2.60;;
13566;SDS011;6855;48.112;11.298;2022-10-31T11:54:19;11.23;;;2.93;;
13566;SDS011;6855;48.112;11.298;2022-10-31T11:56:47;7.77;;;2.70;;
13566;SDS011;6855;48.112;11.298;2022-10-31T11:59:16;8.03;;;2.40;;
13566;SDS011;6855;48.112;11.298;2022-10-31T12:01:46;4.63;;;2.57;;
13566;SDS011;6855;48.112;11.298;2022-10-31T12:04:14;15.70;;;3.47;;
13566;SDS011;6855;48.112;11.298;2022-10-31T12:09:27;8.20;;;3.00;;
13566;SDS011;6855;48.112;11.298;2022-10-31T12:11:59;8.53;;;3.30;;
13566;SDS011;6855;48.112;11.298;2022-10-31T12:14:32;11.83;;;3.17;;
13566;SDS011;6855;48.112;11.298;2022-10-31T12:17:03;11.53;;;3.50;;
13566;SDS011;6855;48.112;11.298;2022-10-31T12:19:35;6.07;;;2.70;;
13566;SDS011;6855;48.112;11.298;2022-10-31T12:22:05;9.10;;;2.63;;
13566;SDS011;6855;48.112;11.298;2022-10-31T12:24:38;9.23;;;3.60;;
13566;SDS011;6855;48.112;11.298;2022-10-31T12:27:12;6.40;;;2.70;;
13566;SDS011;6855;48.112;11.298;2022-10-31T12:29:49;5.00;;;2.53;;
13566;SDS011;6855;48.112;11.298;2022-10-31T12:32:21;10.80;;;3.03;;
13566;SDS011;6855;48.112;11.298;2022-10-31T12:37:42;8.80;;;3.57;;
13566;SDS011;6855;48.112;11.298;2022-10-31T12:40:18;9.30;;;3.23;;
13566;SDS011;6855;48.112;11.298;2022-10-31T12:42:50;11.40;;;2.37;;
13566;SDS011;6855;48.112;11.298;2022-10-31T12:45:28;6.73;;;2.83;;
13566;SDS011;6855;48.112;11.298;2022-10-31T12:48:00;7.77;;;3.77;;
13566;SDS011;6855;48.112;11.298;2022-10-31T12:50:38;8.70;;;2.43;;
13566;SDS011;6855;48.112;11.298;2022-10-31T12:53:16;5.30;;;2.90;;
13566;SDS011;6855;48.112;11.298;2022-10-31T12:55:55;8.93;;;2.93;;
13566;SDS011;6855;48.112;11.298;2022-10-31T12:58:24;11.40;;;3.07;;
13566;SDS011;6855;48.112;11.298;2022-10-31T13:00:55;6.50;;;2.70;;
13566;SDS011;6855;48.112;11.298;2022-10-31T13:03:27;13.63;;;3.00;;
13566;SDS011;6855;48.112;11.298;2022-10-31T13:05:57;12.87;;;2.37;;
13566;SDS011;6855;48.112;11.298;2022-10-31T13:08:26;7.13;;;2.77;;
13566;SDS011;6855;48.112;11.298;2022-10-31T13:10:59;6.90;;;2.90;;
13566;SDS011;6855;48.112;11.298;2022-10-31T13:13:31;8.37;;;3.33;;
13566;SDS011;6855;48.112;11.298;2022-10-31T13:15:59;7.37;;;2.93;;
13566;SDS011;6855;48.112;11.298;2022-10-31T13:18:28;12.20;;;3.43;;
13566;SDS011;6855;48.112;11.298;2022-10-31T13:20:57;8.20;;;2.27;;
13566;SDS011;6855;48.112;11.298;2022-10-31T13:23:27;8.27;;;2.80;;
13566;SDS011;6855;48.112;11.298;2022-10-31T13:25:55;5.23;;;2.90;;
13566;SDS011;6855;48.112;11.298;2022-10-31T13:28:26;6.33;;;3.07;;
13566;SDS011;6855;48.112;11.298;2022-10-31T13:30:54;13.50;;;3.00;;
13566;SDS011;6855;48.112;11.298;2022-10-31T13:33:23;9.47;;;3.10;;
13566;SDS011;6855;48.112;11.298;2022-10-31T13:35:54;9.07;;;3.13;;
13566;SDS011;6855;48.112;11.298;2022-10-31T13:38:25;13.43;;;2.40;;
13566;SDS011;6855;48.112;11.298;2022-10-31T13:40:57;7.93;;;2.77;;
13566;SDS011;6855;48.112;11.298;2022-10-31T13:43:33;7.97;;;2.23;;
13566;SDS011;6855;48.112;11.298;2022-10-31T13:48:45;4.47;;;2.47;;
13566;SDS011;6855;48.112;11.298;2022-10-31T13:51:13;7.90;;;2.13;;
13566;SDS011;6855;48.112;11.298;2022-10-31T13:53:56;11.10;;;2.67;;
13566;SDS011;6855;48.112;11.298;2022-10-31T13:56:25;8.93;;;3.30;;
13566;SDS011;6855;48.112;11.298;2022-10-31T13:59:16;7.60;;;2.13;;
13566;SDS011;6855;48.112;11.298;2022-10-31T14:01:46;11.17;;;2.77;;
13566;SDS011;6855;48.112;11.298;2022-10-31T14:04:14;7.13;;;2.73;;
13566;SDS011;6855;48.112;11.298;2022-10-31T14:06:43;12.00;;;2.40;;
13566;SDS011;6855;48.112;11.298;2022-10-31T14:09:17;6.80;;;2.40;;
13566;SDS011;6855;48.112;11.298;2022-10-31T14:11:45;7.47;;;2.40;;
13566;SDS011;6855;48.112;11.298;2022-10-31T14:14:13;9.40;;;2.93;;
13566;SDS011;6855;48.112;11.298;2022-10-31T14:16:43;6.73;;;2.50;;
13566;SDS011;6855;48.112;11.298;2022-10-31T14:19:13;7.87;;;2.50;;
13566;SDS011;6855;48.112;11.298;2022-10-31T14:21:42;7.83;;;3.30;;
13566;SDS011;6855;48.112;11.298;2022-10-31T14:24:13;9.10;;;2.87;;
13566;SDS011;6855;48.112;11.298;2022-10-31T14:26:50;5.53;;;2.47;;
13566;SDS011;6855;48.112;11.298;2022-10-31T14:29:24;8.80;;;2.60;;
13566;SDS011;6855;48.112;11.298;2022-10-31T14:31:55;7.77;;;2.90;;
13566;SDS011;6855;48.112;11.298;2022-10-31T14:34:23;9.10;;;2.40;;
13566;SDS011;6855;48.112;11.298;2022-10-31T14:39:38;9.40;;;2.30;;
13566;SDS011;6855;48.112;11.298;2022-10-31T14:42:19;10.43;;;2.50;;
13566;SDS011;6855;48.112;11.298;2022-10-31T14:47:45;5.60;;;2.97;;
13566;SDS011;6855;48.112;11.298;2022-10-31T14:50:20;15.30;;;4.63;;
13566;SDS011;6855;48.112;11.298;2022-10-31T14:52:49;30.10;;;7.07;;
13566;SDS011;6855;48.112;11.298;2022-10-31T14:55:17;64.70;;;17.50;;
13566;SDS011;6855;48.112;11.298;2022-10-31T14:57:46;41.47;;;13.07;;
13566;SDS011;6855;48.112;11.298;2022-10-31T15:00:16;9.40;;;3.77;;
13566;SDS011;6855;48.112;11.298;2022-10-31T15:02:46;12.13;;;4.90;;
13566;SDS011;6855;48.112;11.298;2022-10-31T15:05:16;9.63;;;2.73;;
13566;SDS011;6855;48.112;11.298;2022-10-31T15:08:12;8.00;;;2.63;;
13566;SDS011;6855;48.112;11.298;2022-10-31T15:10:55;26.97;;;3.83;;
13566;SDS011;6855;48.112;11.298;2022-10-31T15:14:29;11.20;;;3.00;;
13566;SDS011;6855;48.112;11.298;2022-10-31T15:47:28;13.83;;;3.47;;